createdAt,value
2018-05-01T00:09:12.287Z,1
2018-05-01T00:19:12.165Z,1
2018-05-01T00:29:12.166Z,1
2018-05-01T00:39:12.213Z,2
2018-05-01T00:49:12.262Z,2
2018-05-01T00:59:13.345Z,2
2018-05-01T01:09:12.293Z,2
2018-05-01T01:19:12.275Z,2
2018-05-01T01:29:12.385Z,2
2018-05-01T01:39:12.348Z,1
2018-05-01T01:49:12.241Z,2
2018-05-01T01:59:12.379Z,2
2018-05-01T02:09:12.365Z,2
2018-05-01T02:19:12.294Z,2
2018-05-01T02:29:12.253Z,1
2018-05-01T02:39:12.359Z,2
2018-05-01T02:49:12.361Z,2
2018-05-01T02:59:12.347Z,2
2018-05-01T03:09:12.369Z,3
2018-05-01T03:19:12.326Z,2
2018-05-01T03:29:12.351Z,3
2018-05-01T03:39:12.505Z,3
2018-05-01T03:49:12.358Z,4
2018-05-01T03:59:12.358Z,3
2018-05-01T04:09:12.535Z,4
2018-05-01T04:19:12.471Z,3
2018-05-01T04:29:12.889Z,4
2018-05-01T04:39:12.411Z,5
2018-05-01T04:49:12.441Z,4
2018-05-01T04:59:12.348Z,4
2018-05-01T05:09:12.400Z,4
2018-05-01T05:19:12.434Z,4
2018-05-01T05:29:12.425Z,4
2018-05-01T05:39:12.385Z,5
2018-05-01T05:49:12.582Z,6
2018-05-01T05:59:12.416Z,5
2018-05-01T06:09:12.452Z,9
2018-05-01T06:19:12.650Z,7
2018-05-01T06:29:12.524Z,8
2018-05-01T06:39:12.617Z,10
2018-05-01T06:49:12.512Z,11
2018-05-01T06:59:12.547Z,11
2018-05-01T07:09:13.190Z,11
2018-05-01T07:19:13.240Z,12
2018-05-01T07:29:12.524Z,8
2018-05-01T07:39:12.717Z,12
2018-05-01T07:49:12.572Z,12
2018-05-01T07:59:13.418Z,11
2018-05-01T08:09:12.527Z,10
2018-05-01T08:19:12.712Z,15
2018-05-01T08:29:12.586Z,9
2018-05-01T08:39:12.756Z,10
2018-05-01T08:49:12.634Z,10
2018-05-01T08:59:13.122Z,11
2018-05-01T09:09:12.650Z,9
2018-05-01T09:19:12.548Z,10
2018-05-01T09:29:12.572Z,10
2018-05-01T09:39:12.640Z,12
2018-05-01T09:49:12.824Z,11
2018-05-01T09:59:12.666Z,7
2018-05-01T10:09:12.672Z,6
2018-05-01T10:19:12.722Z,6
2018-05-01T10:29:12.687Z,6
2018-05-01T10:39:13.507Z,7
2018-05-01T10:49:12.903Z,7
2018-05-01T10:59:12.883Z,6
2018-05-01T11:09:13.564Z,5
2018-05-01T11:19:12.880Z,6
2018-05-01T11:29:12.956Z,7
2018-05-01T11:39:12.920Z,9
2018-05-01T11:49:12.875Z,8
2018-05-01T11:59:13.019Z,8
2018-05-01T12:09:13.486Z,6
2018-05-01T12:19:12.901Z,5
2018-05-01T12:29:12.824Z,5
2018-05-01T12:39:12.737Z,6
2018-05-01T12:49:12.842Z,7
2018-05-01T12:59:13.034Z,5
2018-05-01T13:09:13.013Z,5
2018-05-01T13:19:12.925Z,5
2018-05-01T13:29:12.891Z,4
2018-05-01T13:39:13.514Z,5
2018-05-01T13:49:14.288Z,6
2018-05-01T13:59:12.981Z,5
2018-05-01T14:09:13.371Z,9
2018-05-01T14:19:13.192Z,7
2018-05-01T14:29:12.978Z,6
2018-05-01T14:39:13.535Z,6
2018-05-01T14:49:13.248Z,6
2018-05-01T14:59:13.127Z,5
2018-05-01T15:09:13.018Z,8
2018-05-01T15:19:13.197Z,8
2018-05-01T15:29:13.349Z,5
2018-05-01T15:39:14.173Z,4
2018-05-01T15:49:13.243Z,6
2018-05-01T15:59:13.384Z,3
2018-05-01T16:09:13.261Z,3
2018-05-01T16:19:13.440Z,2
2018-05-01T16:29:13.123Z,3
2018-05-01T16:39:13.025Z,2
2018-05-01T16:49:13.233Z,1
2018-05-01T16:59:13.357Z,4
2018-05-01T17:09:13.168Z,1
2018-05-01T17:19:13.389Z,4
2018-05-01T17:29:13.274Z,1
2018-05-01T17:39:17.993Z,4
2018-05-01T17:49:35.317Z,5
2018-05-01T17:59:13.824Z,3
2018-05-01T18:09:13.644Z,3
2018-05-01T18:19:28.646Z,4
2018-05-01T18:29:14.226Z,3
2018-05-01T18:39:13.677Z,3
2018-05-01T18:49:13.363Z,3
2018-05-01T18:59:13.831Z,3
2018-05-01T19:09:13.306Z,4
2018-05-01T19:19:13.337Z,3
2018-05-01T19:29:13.589Z,4
2018-05-01T19:39:13.366Z,3
2018-05-01T19:49:13.357Z,6
2018-05-01T19:59:13.412Z,6
2018-05-01T20:09:13.481Z,7
2018-05-01T20:19:13.543Z,7
2018-05-01T20:29:13.913Z,7
2018-05-01T20:39:13.434Z,7
2018-05-01T20:49:13.526Z,7
2018-05-01T20:59:15.382Z,9
2018-05-01T21:09:13.574Z,9
2018-05-01T21:19:13.690Z,8
2018-05-01T21:29:18.326Z,9
2018-05-01T21:39:13.906Z,11
2018-05-01T21:49:13.994Z,9
2018-05-01T21:59:13.448Z,10
2018-05-01T22:09:13.442Z,9
2018-05-01T22:19:14.101Z,8
2018-05-01T22:29:13.352Z,9
2018-05-01T22:39:13.338Z,14
2018-05-01T22:49:13.589Z,7
2018-05-01T22:59:13.550Z,10
2018-05-01T23:09:13.629Z,7
2018-05-01T23:19:13.416Z,9
2018-05-01T23:29:13.335Z,7
2018-05-01T23:39:13.422Z,8
2018-05-01T23:49:30.475Z,8
2018-05-01T23:59:29.535Z,9
